createdAt,value
2022-12-06T00:01:31.498Z,10.60
2022-12-06T00:04:03.508Z,9.70
2022-12-06T00:06:34.227Z,9.50
2022-12-06T00:09:02.957Z,8.93
2022-12-06T00:11:33.247Z,9.10
2022-12-06T00:14:03.771Z,8.57
2022-12-06T00:16:32.371Z,7.57
2022-12-06T00:19:03.191Z,8.27
2022-12-06T00:21:33.290Z,9.10
2022-12-06T00:24:03.855Z,8.30
2022-12-06T00:26:32.913Z,7.40
2022-12-06T00:29:02.352Z,7.20
2022-12-06T00:31:32.297Z,8.03
2022-12-06T00:34:02.568Z,8.17
2022-12-06T00:36:32.988Z,9.00
2022-12-06T00:39:02.101Z,8.03
2022-12-06T00:41:30.532Z,8.67
2022-12-06T00:43:58.936Z,11.33
2022-12-06T00:46:29.602Z,6.40
2022-12-06T00:49:00.395Z,6.53
2022-12-06T00:51:31.567Z,5.77
2022-12-06T00:54:00.251Z,7.03
2022-12-06T00:56:28.755Z,8.30
2022-12-06T00:58:57.239Z,8.27
2022-12-06T01:01:27.310Z,7.53
2022-12-06T01:03:58.188Z,7.20
2022-12-06T01:06:28.846Z,7.37
2022-12-06T01:09:00.107Z,7.63
2022-12-06T01:11:29.304Z,8.27
2022-12-06T01:13:58.547Z,7.03
2022-12-06T01:16:29.683Z,8.03
2022-12-06T01:19:00.676Z,5.07
2022-12-06T01:21:30.311Z,12.87
2022-12-06T01:24:00.093Z,6.87
2022-12-06T01:26:31.993Z,8.83
2022-12-06T01:29:01.263Z,8.73
2022-12-06T01:31:37.079Z,9.80
2022-12-06T01:34:06.727Z,8.50
2022-12-06T01:36:35.170Z,8.50
2022-12-06T01:39:07.166Z,7.17
2022-12-06T01:41:35.733Z,10.37
2022-12-06T01:44:04.779Z,8.63
2022-12-06T01:46:37.743Z,7.43
2022-12-06T01:49:23.226Z,7.87
2022-12-06T01:51:56.039Z,7.17
2022-12-06T01:54:26.968Z,7.90
2022-12-06T01:56:58.484Z,6.77
2022-12-06T01:59:27.939Z,12.33
2022-12-06T02:01:57.570Z,6.73
2022-12-06T02:04:26.422Z,7.40
2022-12-06T02:06:56.956Z,8.73
2022-12-06T02:09:30.339Z,10.07
2022-12-06T02:11:58.750Z,8.37
2022-12-06T02:14:32.122Z,10.03
2022-12-06T02:17:12.981Z,7.33
2022-12-06T02:19:58.149Z,9.23
2022-12-06T02:22:37.402Z,6.23
2022-12-06T02:25:34.212Z,7.77
2022-12-06T02:28:29.008Z,6.20
2022-12-06T02:31:01.753Z,6.50
2022-12-06T02:33:35.886Z,9.07
2022-12-06T02:36:09.103Z,5.90
2022-12-06T02:38:44.824Z,4.40
2022-12-06T02:41:21.935Z,5.73
2022-12-06T02:43:56.098Z,8.33
2022-12-06T02:46:30.209Z,6.53
2022-12-06T02:49:01.143Z,7.77
2022-12-06T02:51:33.121Z,6.53
2022-12-06T02:54:04.245Z,7.27
2022-12-06T02:56:34.286Z,4.63
2022-12-06T02:59:03.216Z,6.27
2022-12-06T03:01:36.099Z,6.33
2022-12-06T03:04:35.109Z,6.77
2022-12-06T03:07:15.234Z,9.37
2022-12-06T03:09:54.299Z,6.47
2022-12-06T03:12:31.438Z,7.23
2022-12-06T03:15:10.332Z,6.20
2022-12-06T03:17:45.440Z,6.53
2022-12-06T03:20:20.784Z,8.50
2022-12-06T03:22:54.004Z,9.03
2022-12-06T03:25:23.167Z,9.20
2022-12-06T03:27:54.915Z,9.03
2022-12-06T03:30:23.650Z,7.10
2022-12-06T03:32:53.617Z,8.63
2022-12-06T03:35:25.020Z,6.47
2022-12-06T03:37:58.531Z,8.70
2022-12-06T03:40:30.299Z,10.77
2022-12-06T03:43:00.276Z,9.50
2022-12-06T03:45:34.355Z,9.17
2022-12-06T03:48:09.853Z,9.13
2022-12-06T03:50:41.676Z,9.40
2022-12-06T03:53:10.359Z,7.13
2022-12-06T03:55:38.766Z,7.63
2022-12-06T03:58:07.167Z,6.80
2022-12-06T04:00:35.544Z,5.50
2022-12-06T04:03:05.506Z,5.83
2022-12-06T04:05:33.979Z,7.30
2022-12-06T04:08:02.436Z,7.80
2022-12-06T04:10:30.863Z,5.80
2022-12-06T04:13:00.934Z,8.13
2022-12-06T04:15:30.991Z,7.33
2022-12-06T04:18:14.539Z,5.40
2022-12-06T04:21:05.062Z,5.93
2022-12-06T04:23:35.908Z,5.30
2022-12-06T04:26:05.320Z,6.57
2022-12-06T04:28:51.210Z,5.57
2022-12-06T04:31:37.365Z,6.43
2022-12-06T04:34:24.041Z,5.47
2022-12-06T04:37:11.828Z,4.97
2022-12-06T04:39:40.289Z,5.07
2022-12-06T04:42:26.488Z,5.23
2022-12-06T04:44:54.932Z,5.53
2022-12-06T04:47:23.441Z,6.70
2022-12-06T04:49:52.138Z,4.57
2022-12-06T04:52:22.353Z,5.17
2022-12-06T04:54:50.735Z,5.90
2022-12-06T04:57:19.208Z,4.77
2022-12-06T04:59:49.521Z,5.57
2022-12-06T05:02:17.913Z,7.47
2022-12-06T05:04:46.395Z,5.70
2022-12-06T05:07:14.865Z,5.37
2022-12-06T05:09:44.727Z,4.23
2022-12-06T05:12:13.115Z,4.67
2022-12-06T05:14:41.530Z,5.13
2022-12-06T05:17:09.920Z,5.90
2022-12-06T05:19:38.339Z,5.50
2022-12-06T05:22:06.749Z,7.33
2022-12-06T05:24:35.278Z,5.10
2022-12-06T05:27:05.130Z,6.27
2022-12-06T05:29:33.741Z,5.10
2022-12-06T05:32:02.171Z,4.50
2022-12-06T05:34:30.612Z,6.30
2022-12-06T05:36:58.969Z,5.60
2022-12-06T05:39:27.469Z,4.97
2022-12-06T05:41:55.824Z,4.07
2022-12-06T05:44:25.630Z,5.63
2022-12-06T05:46:54.087Z,5.20
2022-12-06T05:49:22.554Z,6.93
2022-12-06T05:51:50.976Z,5.07
2022-12-06T05:54:19.667Z,6.20
2022-12-06T05:56:50.123Z,4.60
2022-12-06T05:59:18.557Z,6.53
2022-12-06T06:01:48.356Z,3.93
2022-12-06T06:04:16.843Z,4.27
2022-12-06T06:06:45.253Z,4.37
2022-12-06T06:09:13.758Z,4.43
2022-12-06T06:11:42.231Z,3.73
2022-12-06T06:14:10.928Z,4.30
2022-12-06T06:16:39.536Z,3.87
2022-12-06T06:19:09.684Z,3.73
2022-12-06T06:21:38.083Z,4.27
2022-12-06T06:24:07.039Z,4.30
2022-12-06T06:26:35.428Z,4.40
2022-12-06T06:29:04.017Z,3.60
2022-12-06T06:31:32.532Z,5.97
2022-12-06T06:34:01.148Z,5.70
2022-12-06T06:36:31.029Z,4.43
2022-12-06T06:39:00.255Z,5.17
2022-12-06T06:41:28.661Z,4.83
2022-12-06T06:43:57.108Z,8.17
2022-12-06T06:46:26.331Z,5.60
2022-12-06T06:48:54.772Z,5.63
2022-12-06T06:51:23.382Z,6.47
2022-12-06T06:53:53.156Z,6.20
2022-12-06T06:56:21.626Z,6.17
2022-12-06T06:58:50.085Z,5.50
2022-12-06T07:01:20.618Z,6.33
2022-12-06T07:03:49.522Z,3.80
2022-12-06T07:06:17.962Z,6.23
2022-12-06T07:08:47.848Z,4.30
2022-12-06T07:11:17.788Z,4.37
2022-12-06T07:13:51.240Z,4.50
2022-12-06T07:16:21.204Z,4.57
2022-12-06T07:18:49.675Z,2.93
2022-12-06T07:21:18.821Z,2.97
2022-12-06T07:23:47.452Z,2.80
2022-12-06T07:26:19.471Z,3.13
2022-12-06T07:28:49.642Z,4.90
2022-12-06T07:31:20.603Z,4.23
2022-12-06T07:33:49.771Z,4.23
2022-12-06T07:36:18.240Z,3.37
2022-12-06T07:38:50.583Z,4.77
2022-12-06T07:41:40.490Z,4.03
2022-12-06T07:44:28.470Z,5.73
2022-12-06T07:46:57.943Z,4.40
2022-12-06T07:49:26.647Z,4.43
2022-12-06T07:51:56.235Z,6.80
2022-12-06T07:54:25.615Z,4.80
2022-12-06T07:56:56.786Z,9.27
2022-12-06T07:59:25.999Z,5.13
2022-12-06T08:01:54.997Z,4.23
2022-12-06T08:04:23.832Z,4.73
2022-12-06T08:06:52.385Z,5.03
2022-12-06T08:09:20.945Z,3.40
2022-12-06T08:11:49.352Z,4.60
2022-12-06T08:14:19.155Z,4.20
2022-12-06T08:16:47.570Z,2.80
2022-12-06T08:19:15.973Z,3.03
2022-12-06T08:21:44.412Z,4.03
2022-12-06T08:24:13.188Z,4.83
2022-12-06T08:26:41.675Z,3.83
2022-12-06T08:29:10.064Z,4.70
2022-12-06T08:31:40.054Z,4.20
2022-12-06T08:34:08.548Z,3.53
2022-12-06T08:36:39.635Z,5.10
2022-12-06T08:39:09.155Z,3.73
2022-12-06T08:41:55.158Z,3.63
2022-12-06T08:44:24.270Z,3.90
2022-12-06T08:46:54.637Z,5.33
2022-12-06T08:49:24.190Z,4.77
2022-12-06T08:51:53.201Z,3.90
2022-12-06T08:54:23.679Z,3.97
2022-12-06T08:56:52.685Z,4.40
2022-12-06T08:59:21.675Z,4.83
2022-12-06T09:01:50.267Z,5.03
2022-12-06T09:04:20.225Z,3.50
2022-12-06T09:06:48.867Z,5.67
2022-12-06T09:09:18.868Z,3.43
2022-12-06T09:11:48.019Z,7.07
2022-12-06T09:14:21.989Z,3.07
2022-12-06T09:16:52.444Z,2.13
2022-12-06T09:19:22.561Z,2.80
2022-12-06T09:21:51.043Z,3.20
2022-12-06T09:24:20.829Z,2.73
2022-12-06T09:26:49.379Z,2.93
2022-12-06T09:29:18.948Z,2.73
2022-12-06T09:31:47.469Z,3.87
2022-12-06T09:34:17.009Z,3.10
2022-12-06T09:36:51.883Z,2.90
2022-12-06T09:39:24.789Z,4.63
2022-12-06T09:42:13.767Z,3.53
2022-12-06T09:45:00.428Z,4.83
2022-12-06T09:47:39.600Z,3.87
2022-12-06T09:50:18.268Z,3.27
2022-12-06T09:53:00.586Z,4.40
2022-12-06T09:55:43.563Z,3.27
2022-12-06T09:58:22.221Z,2.57
2022-12-06T10:01:01.726Z,2.77
2022-12-06T10:03:59.241Z,2.90
2022-12-06T10:06:35.980Z,3.57
2022-12-06T10:09:21.137Z,2.20
2022-12-06T10:12:05.210Z,3.73
2022-12-06T10:14:47.844Z,2.67
2022-12-06T10:17:26.500Z,3.20
2022-12-06T10:20:04.808Z,4.50
2022-12-06T10:22:43.531Z,3.10
2022-12-06T10:25:19.241Z,3.70
2022-12-06T10:27:54.922Z,3.90
2022-12-06T10:30:23.406Z,3.00
2022-12-06T10:32:54.230Z,2.77
2022-12-06T10:35:44.236Z,2.33
2022-12-06T10:38:20.955Z,2.60
2022-12-06T10:41:02.396Z,3.07
2022-12-06T10:43:37.978Z,2.33
2022-12-06T10:46:28.744Z,2.50
2022-12-06T10:49:04.225Z,1.90
2022-12-06T10:51:41.038Z,4.03
2022-12-06T10:54:19.647Z,2.57
2022-12-06T10:56:52.235Z,2.60
2022-12-06T10:59:29.381Z,3.00
2022-12-06T11:02:01.035Z,3.10
2022-12-06T11:04:34.615Z,3.23
2022-12-06T11:07:09.677Z,2.83
2022-12-06T11:09:42.059Z,3.10
2022-12-06T11:12:31.234Z,4.10
2022-12-06T11:15:07.473Z,3.33
2022-12-06T11:17:40.595Z,3.37
2022-12-06T11:20:23.662Z,3.07
2022-12-06T11:23:07.496Z,8.20
2022-12-06T11:25:45.644Z,5.37
2022-12-06T11:28:30.987Z,4.87
2022-12-06T11:31:00.129Z,4.77
2022-12-06T11:33:32.687Z,4.53
2022-12-06T11:36:04.123Z,6.87
2022-12-06T11:38:34.008Z,5.07
2022-12-06T11:41:03.809Z,3.63
2022-12-06T11:43:36.541Z,5.50
2022-12-06T11:46:06.003Z,5.73
2022-12-06T11:48:36.748Z,4.57
2022-12-06T11:51:05.606Z,3.97
2022-12-06T11:53:38.241Z,9.33
2022-12-06T11:56:16.893Z,5.97
2022-12-06T11:59:00.459Z,4.33
2022-12-06T12:01:40.292Z,4.70
2022-12-06T12:04:34.251Z,4.27
2022-12-06T12:07:06.572Z,4.40
2022-12-06T12:09:38.167Z,3.90
2022-12-06T12:12:13.846Z,4.73
2022-12-06T12:14:49.682Z,4.80
2022-12-06T12:17:23.062Z,4.30
2022-12-06T12:19:53.983Z,3.17
2022-12-06T12:22:29.423Z,2.97
2022-12-06T12:27:49.930Z,3.13
2022-12-06T12:30:28.210Z,4.73
2022-12-06T12:33:18.572Z,3.43
2022-12-06T12:35:49.403Z,2.77
2022-12-06T12:38:23.630Z,3.13
2022-12-06T12:40:54.667Z,4.10
2022-12-06T12:43:25.998Z,2.70
2022-12-06T12:46:18.037Z,2.47
2022-12-06T12:48:48.151Z,1.93
2022-12-06T12:51:34.538Z,1.90
2022-12-06T12:54:05.004Z,2.80
2022-12-06T12:56:36.037Z,4.70
2022-12-06T12:59:13.393Z,2.63
2022-12-06T13:01:48.149Z,3.30
2022-12-06T13:04:25.515Z,3.00
2022-12-06T13:06:59.323Z,2.53
2022-12-06T13:09:32.548Z,1.80
2022-12-06T13:12:06.032Z,2.17
2022-12-06T13:14:36.227Z,2.53
2022-12-06T13:17:10.420Z,2.53
2022-12-06T13:19:43.146Z,2.47
2022-12-06T13:22:17.280Z,3.13
2022-12-06T13:24:48.581Z,1.90
2022-12-06T13:27:20.400Z,2.83
2022-12-06T13:29:55.420Z,2.30
2022-12-06T13:32:31.172Z,2.43
2022-12-06T13:35:02.796Z,3.87
2022-12-06T13:37:36.769Z,3.13
2022-12-06T13:40:07.218Z,2.67
2022-12-06T13:42:45.639Z,2.87
2022-12-06T13:45:41.391Z,2.47
2022-12-06T13:48:39.894Z,3.03
2022-12-06T13:51:13.239Z,2.20
2022-12-06T13:54:17.983Z,2.80
2022-12-06T13:56:46.937Z,2.57
2022-12-06T13:59:35.475Z,4.53
2022-12-06T14:02:24.060Z,2.63
2022-12-06T14:04:53.927Z,2.77
2022-12-06T14:07:35.310Z,2.30
2022-12-06T14:10:15.737Z,7.73
2022-12-06T14:12:44.537Z,2.80
2022-12-06T14:15:20.030Z,3.17
2022-12-06T14:18:09.672Z,3.33
2022-12-06T14:20:42.849Z,4.00
2022-12-06T14:23:26.864Z,2.70
2022-12-06T14:26:14.533Z,3.20
2022-12-06T14:28:43.572Z,3.33
2022-12-06T14:31:38.224Z,5.23
2022-12-06T14:34:07.023Z,7.50
2022-12-06T14:36:41.420Z,3.07
2022-12-06T14:39:17.376Z,3.70
2022-12-06T14:42:11.153Z,3.87
2022-12-06T14:44:39.746Z,3.07
2022-12-06T14:47:08.897Z,5.23
2022-12-06T21:37:48.925Z,3.83
2022-12-06T21:40:17.596Z,4.70
2022-12-06T21:42:46.687Z,6.67
2022-12-06T21:45:15.352Z,7.40
2022-12-06T21:47:44.177Z,3.67
2022-12-06T21:50:13.652Z,5.67
2022-12-06T21:52:42.209Z,4.13
2022-12-06T21:55:12.466Z,5.50
2022-12-06T21:57:40.946Z,4.73
2022-12-06T22:00:10.560Z,4.23
2022-12-06T22:02:39.116Z,4.60
2022-12-06T22:05:08.376Z,4.00
2022-12-06T22:07:37.239Z,4.67
2022-12-06T22:10:06.733Z,2.93
2022-12-06T22:12:36.650Z,4.10
2022-12-06T22:15:05.567Z,4.20
2022-12-06T22:17:34.262Z,2.87
2022-12-06T22:20:03.722Z,3.40
2022-12-06T22:22:32.488Z,3.40
2022-12-06T22:25:01.291Z,2.50
2022-12-06T22:27:30.005Z,6.93
2022-12-06T22:30:00.281Z,4.87
2022-12-06T22:32:29.130Z,2.77
2022-12-06T22:34:59.308Z,2.63
2022-12-06T22:37:28.698Z,3.93
2022-12-06T22:39:57.400Z,2.47
2022-12-06T22:42:25.918Z,1.40
2022-12-06T22:44:54.584Z,2.73
2022-12-06T22:47:24.546Z,1.73
2022-12-06T22:49:53.151Z,2.03
2022-12-06T22:52:21.644Z,1.30
2022-12-06T22:54:50.334Z,2.47
2022-12-06T22:57:18.872Z,2.83
2022-12-06T22:59:47.412Z,2.23
2022-12-06T23:02:15.993Z,2.23
2022-12-06T23:04:46.044Z,2.97
2022-12-06T23:07:14.556Z,2.23
2022-12-06T23:09:43.241Z,3.57
2022-12-06T23:12:11.807Z,3.57
2022-12-06T23:14:40.638Z,4.00
2022-12-06T23:17:09.279Z,3.77
2022-12-06T23:19:37.860Z,2.73
2022-12-06T23:22:07.887Z,4.27
2022-12-06T23:24:36.541Z,3.93
2022-12-06T23:27:05.115Z,4.90
2022-12-06T23:29:33.614Z,4.90
2022-12-06T23:32:02.218Z,7.00
2022-12-06T23:34:30.782Z,5.10
2022-12-06T23:36:59.509Z,7.50
2022-12-06T23:39:29.505Z,6.67
2022-12-06T23:41:58.090Z,7.63
2022-12-06T23:44:27.722Z,7.23
2022-12-06T23:46:56.445Z,3.83
2022-12-06T23:49:25.148Z,5.93
2022-12-06T23:51:53.684Z,4.93
2022-12-06T23:54:22.221Z,5.63
2022-12-06T23:56:52.340Z,5.70
2022-12-06T23:59:21.045Z,6.10
